Redwood City, CA (94065)

2:02 AM PDT on September 01, 2014 (GMT -0700)
Lauriedale | Change Station
CLOSE
Current Station
Personal Weather Station
Location: San Mateo, CA
Elevation: 30 ft
Nearby Weather Stations

Elev 30 ft 37.53 °N, 122.29 °W | Updated 4 seconds ago

Clear
Clear
62.5 °F
Feels Like 62.5 °F
N
0.0
Wind Variable Wind from SE
Gusts 0.0 mph

Today
High -- | Low -- °F
--% Chance of Precip.
Yesterday
High -- | Low -- °F
Precip. -- in
6:39 AM 7:37 PM
Waxing Crescent, 39% visible
Pressure 29.85 in
Visibility 10.0 miles
Clouds Clear
Dew Point 53 °F
Humidity 70%
Rainfall 0.00 in
Snow Depth Not available.
UV 0 out of 12
Pollen 7.60 out of 12
PM2.5 Good
Flu Activity Not available.
METAR KSQL 010850Z AUTO 00000KT 10SM CLR 17/12 A2985 RMK AO2

More Conditions Fewer Conditions

Pressure 29.85 in
Visibility 10.0 miles
Clouds Clear
Dew Point 53 °F
Humidity 70%
Rainfall 0.00 in
Snow Depth Not available.
UV 0 out of 12
Pollen 7.60 out of 12
PM2.5 Good
Flu Activity Not available.
METAR KSQL 010850Z AUTO 00000KT 10SM CLR 17/12 A2985 RMK AO2

More Conditions Fewer Conditions

10-Day Weather Forecast

Almanac

Astronomy

Sep. 01, 2014 Rise Set
Actual Time 6:39 AM PDT 7:37 PM PDT
Civil Twilight 6:12 AM PDT 8:04 PM PDT
Nautical Twilight 5:40 AM PDT 8:36 PM PDT
Astronomical Twilight 5:07 AM PDT 9:09 PM PDT
Moon 1:22 PM PDT 11:51 PM PDT
Length of Visible Light 13h 51m
Length of Day
12h 58m
Tomorrow will be 2m 19s shorter.
Waxing Crescent, 39% of the Moon is Illuminated
Today
Waxing Crescent
Sep 2
First Quarter
Sep 8
Full
Sep 15
Last Quarter
Sep 24
New

Today's Extremes

State Highs State Lows

Community

WunderPhotos

Upload Photos

1,749,178 photos uploaded!

Nearby

Air Quality

  Air Quality AQ Index Pollutant
Yesterday Good
PM2.5
Yesterday Good
OZONE
Current Good
PM2.5
Monday Good
OZONE
Tuesday Good
OZONE
Wednesday Good
OZONE
Thursday Good
OZONE
Friday Good
OZONE

Snow Depth

Station Depth Elevation
Blue Lakes 0 in 8000 ft
Forestdale Creek 0 in 8029 ft
Echo Peak 0 in 7800 ft
Leavitt Lake 1 in 9400 ft
Rubicon #2 0 in 7500 ft

Earthquake Activity

City Distance Mag. Time & Date
Green Valley, California 49 miles 2.5 6:37 AM PDT
2014-08-31
Napa, California 48 miles 3.2 1:56 AM PDT
2014-08-31
Gonzales, California 83 miles 2.7 9:48 PM PDT
2014-08-30
Ridgemark, California 77 miles 3.4 4:32 PM PDT
2014-08-29
Minimum magnitude displayed is 2.5.

Coastal Water Temperatures

Place Temperature
No Stations Reporting

Nearby Weather Stations